sensor_id;sensor_type;location;lat;lon;timestamp;P1;durP1;ratioP1;P2;durP2;ratioP2
50773;SDS011;36745;48.544;8.918;2024-01-10T00:00:10;60.00;;;29.33;;
50773;SDS011;36745;48.544;8.918;2024-01-10T00:03:30;53.55;;;26.40;;
50773;SDS011;36745;48.544;8.918;2024-01-10T00:06:50;54.38;;;25.55;;
50773;SDS011;36745;48.544;8.918;2024-01-10T00:10:10;56.88;;;28.05;;
50773;SDS011;36745;48.544;8.918;2024-01-10T00:13:33;63.40;;;28.13;;
50773;SDS011;36745;48.544;8.918;2024-01-10T00:16:52;62.33;;;28.02;;
50773;SDS011;36745;48.544;8.918;2024-01-10T00:20:12;55.63;;;27.10;;
50773;SDS011;36745;48.544;8.918;2024-01-10T00:23:32;57.17;;;27.70;;
50773;SDS011;36745;48.544;8.918;2024-01-10T00:26:52;57.63;;;26.95;;
50773;SDS011;36745;48.544;8.918;2024-01-10T00:30:11;55.10;;;26.25;;
50773;SDS011;36745;48.544;8.918;2024-01-10T00:33:31;57.05;;;27.73;;
50773;SDS011;36745;48.544;8.918;2024-01-10T00:36:51;58.30;;;28.80;;
50773;SDS011;36745;48.544;8.918;2024-01-10T00:40:11;67.78;;;30.63;;
50773;SDS011;36745;48.544;8.918;2024-01-10T00:43:31;72.13;;;32.40;;
50773;SDS011;36745;48.544;8.918;2024-01-10T00:46:51;65.60;;;31.83;;
50773;SDS011;36745;48.544;8.918;2024-01-10T00:50:11;67.65;;;31.40;;
50773;SDS011;36745;48.544;8.918;2024-01-10T00:53:30;59.47;;;29.88;;
50773;SDS011;36745;48.544;8.918;2024-01-10T00:56:50;61.88;;;29.52;;
50773;SDS011;36745;48.544;8.918;2024-01-10T01:00:10;61.83;;;30.45;;
50773;SDS011;36745;48.544;8.918;2024-01-10T01:03:30;60.67;;;29.35;;
50773;SDS011;36745;48.544;8.918;2024-01-10T01:06:50;55.53;;;26.17;;
50773;SDS011;36745;48.544;8.918;2024-01-10T01:10:09;57.20;;;27.52;;
50773;SDS011;36745;48.544;8.918;2024-01-10T01:13:29;57.20;;;28.05;;
50773;SDS011;36745;48.544;8.918;2024-01-10T01:16:49;58.28;;;28.65;;
50773;SDS011;36745;48.544;8.918;2024-01-10T01:20:09;58.35;;;29.13;;
50773;SDS011;36745;48.544;8.918;2024-01-10T01:23:29;58.88;;;30.10;;
50773;SDS011;36745;48.544;8.918;2024-01-10T01:26:48;61.03;;;30.65;;
50773;SDS011;36745;48.544;8.918;2024-01-10T01:30:08;58.88;;;28.13;;
50773;SDS011;36745;48.544;8.918;2024-01-10T01:33:30;55.22;;;27.58;;
50773;SDS011;36745;48.544;8.918;2024-01-10T01:36:50;61.13;;;30.95;;
50773;SDS011;36745;48.544;8.918;2024-01-10T01:40:10;62.45;;;29.13;;
50773;SDS011;36745;48.544;8.918;2024-01-10T01:43:30;59.05;;;29.20;;
50773;SDS011;36745;48.544;8.918;2024-01-10T01:46:50;59.60;;;28.77;;
50773;SDS011;36745;48.544;8.918;2024-01-10T01:50:10;59.90;;;28.88;;
50773;SDS011;36745;48.544;8.918;2024-01-10T01:53:30;58.28;;;29.33;;
50773;SDS011;36745;48.544;8.918;2024-01-10T01:56:49;60.25;;;29.38;;
50773;SDS011;36745;48.544;8.918;2024-01-10T02:00:10;70.43;;;29.90;;
50773;SDS011;36745;48.544;8.918;2024-01-10T02:03:31;66.53;;;29.08;;
50773;SDS011;36745;48.544;8.918;2024-01-10T02:06:51;61.50;;;29.27;;
50773;SDS011;36745;48.544;8.918;2024-01-10T02:10:11;59.08;;;29.63;;
50773;SDS011;36745;48.544;8.918;2024-01-10T02:13:32;56.78;;;30.35;;
50773;SDS011;36745;48.544;8.918;2024-01-10T02:16:52;59.13;;;29.70;;
50773;SDS011;36745;48.544;8.918;2024-01-10T02:20:13;64.35;;;30.92;;
50773;SDS011;36745;48.544;8.918;2024-01-10T02:26:55;57.13;;;28.00;;
50773;SDS011;36745;48.544;8.918;2024-01-10T02:30:15;60.10;;;29.70;;
50773;SDS011;36745;48.544;8.918;2024-01-10T02:33:35;67.15;;;31.63;;
50773;SDS011;36745;48.544;8.918;2024-01-10T02:36:55;63.35;;;30.15;;
50773;SDS011;36745;48.544;8.918;2024-01-10T02:40:14;61.10;;;30.40;;
50773;SDS011;36745;48.544;8.918;2024-01-10T02:43:35;60.92;;;30.65;;
50773;SDS011;36745;48.544;8.918;2024-01-10T02:46:55;65.88;;;31.55;;
50773;SDS011;36745;48.544;8.918;2024-01-10T02:50:14;75.30;;;39.38;;
50773;SDS011;36745;48.544;8.918;2024-01-10T02:53:35;66.45;;;33.15;;
50773;SDS011;36745;48.544;8.918;2024-01-10T02:56:55;63.88;;;31.52;;
50773;SDS011;36745;48.544;8.918;2024-01-10T03:00:15;65.03;;;31.48;;
50773;SDS011;36745;48.544;8.918;2024-01-10T03:03:35;64.43;;;31.02;;
50773;SDS011;36745;48.544;8.918;2024-01-10T03:06:55;64.07;;;32.47;;
50773;SDS011;36745;48.544;8.918;2024-01-10T03:10:15;64.53;;;32.33;;
50773;SDS011;36745;48.544;8.918;2024-01-10T03:13:35;58.67;;;30.27;;
50773;SDS011;36745;48.544;8.918;2024-01-10T03:16:55;65.55;;;31.42;;
50773;SDS011;36745;48.544;8.918;2024-01-10T03:20:15;57.45;;;29.20;;
50773;SDS011;36745;48.544;8.918;2024-01-10T03:23:34;61.17;;;30.60;;
50773;SDS011;36745;48.544;8.918;2024-01-10T03:26:54;59.13;;;29.05;;
50773;SDS011;36745;48.544;8.918;2024-01-10T03:30:14;61.15;;;30.58;;
50773;SDS011;36745;48.544;8.918;2024-01-10T03:33:37;59.53;;;30.33;;
50773;SDS011;36745;48.544;8.918;2024-01-10T03:37:00;61.30;;;29.70;;
50773;SDS011;36745;48.544;8.918;2024-01-10T03:40:19;65.45;;;30.60;;
50773;SDS011;36745;48.544;8.918;2024-01-10T03:43:39;60.10;;;30.45;;
50773;SDS011;36745;48.544;8.918;2024-01-10T03:46:59;63.17;;;29.98;;
50773;SDS011;36745;48.544;8.918;2024-01-10T03:50:18;60.88;;;30.00;;
50773;SDS011;36745;48.544;8.918;2024-01-10T03:53:39;61.17;;;30.50;;
50773;SDS011;36745;48.544;8.918;2024-01-10T03:56:58;61.97;;;29.90;;
50773;SDS011;36745;48.544;8.918;2024-01-10T04:00:18;67.53;;;32.35;;
50773;SDS011;36745;48.544;8.918;2024-01-10T04:03:38;61.75;;;32.08;;
50773;SDS011;36745;48.544;8.918;2024-01-10T04:07:00;63.35;;;29.85;;
50773;SDS011;36745;48.544;8.918;2024-01-10T04:10:20;55.53;;;27.80;;
50773;SDS011;36745;48.544;8.918;2024-01-10T04:13:40;58.15;;;28.83;;
50773;SDS011;36745;48.544;8.918;2024-01-10T04:16:59;54.45;;;28.63;;
50773;SDS011;36745;48.544;8.918;2024-01-10T04:20:20;65.28;;;31.42;;
50773;SDS011;36745;48.544;8.918;2024-01-10T04:23:40;53.78;;;28.15;;
50773;SDS011;36745;48.544;8.918;2024-01-10T04:27:00;59.70;;;29.38;;
50773;SDS011;36745;48.544;8.918;2024-01-10T04:30:20;51.47;;;27.35;;
50773;SDS011;36745;48.544;8.918;2024-01-10T04:33:39;57.35;;;29.17;;
50773;SDS011;36745;48.544;8.918;2024-01-10T04:36:59;58.38;;;29.02;;
50773;SDS011;36745;48.544;8.918;2024-01-10T04:40:19;56.13;;;28.38;;
50773;SDS011;36745;48.544;8.918;2024-01-10T04:43:38;57.85;;;28.83;;
50773;SDS011;36745;48.544;8.918;2024-01-10T04:46:58;65.57;;;34.10;;
50773;SDS011;36745;48.544;8.918;2024-01-10T04:50:18;58.15;;;29.95;;
50773;SDS011;36745;48.544;8.918;2024-01-10T04:53:38;65.22;;;32.47;;
50773;SDS011;36745;48.544;8.918;2024-01-10T04:56:58;63.47;;;31.65;;
50773;SDS011;36745;48.544;8.918;2024-01-10T05:00:18;59.22;;;30.27;;
50773;SDS011;36745;48.544;8.918;2024-01-10T05:03:40;68.47;;;33.08;;
50773;SDS011;36745;48.544;8.918;2024-01-10T05:07:00;60.28;;;29.05;;
50773;SDS011;36745;48.544;8.918;2024-01-10T05:10:19;57.85;;;29.83;;
50773;SDS011;36745;48.544;8.918;2024-01-10T05:13:39;54.03;;;27.83;;
50773;SDS011;36745;48.544;8.918;2024-01-10T05:16:59;59.80;;;27.98;;
50773;SDS011;36745;48.544;8.918;2024-01-10T05:20:19;60.05;;;29.75;;
50773;SDS011;36745;48.544;8.918;2024-01-10T05:23:39;59.35;;;30.75;;
50773;SDS011;36745;48.544;8.918;2024-01-10T05:26:59;62.42;;;34.13;;
50773;SDS011;36745;48.544;8.918;2024-01-10T05:30:19;60.17;;;30.77;;
50773;SDS011;36745;48.544;8.918;2024-01-10T05:33:39;57.65;;;30.50;;
50773;SDS011;36745;48.544;8.918;2024-01-10T05:37:00;60.42;;;29.92;;
50773;SDS011;36745;48.544;8.918;2024-01-10T05:40:19;62.70;;;30.10;;
50773;SDS011;36745;48.544;8.918;2024-01-10T05:43:39;60.45;;;29.92;;
50773;SDS011;36745;48.544;8.918;2024-01-10T05:47:00;64.10;;;29.98;;
50773;SDS011;36745;48.544;8.918;2024-01-10T05:50:20;61.17;;;29.23;;
50773;SDS011;36745;48.544;8.918;2024-01-10T05:53:40;74.00;;;34.35;;
50773;SDS011;36745;48.544;8.918;2024-01-10T05:57:00;64.72;;;31.25;;
50773;SDS011;36745;48.544;8.918;2024-01-10T06:00:20;66.00;;;32.28;;
50773;SDS011;36745;48.544;8.918;2024-01-10T06:03:40;67.03;;;31.65;;
50773;SDS011;36745;48.544;8.918;2024-01-10T06:07:00;62.75;;;31.40;;
50773;SDS011;36745;48.544;8.918;2024-01-10T06:10:20;64.05;;;32.20;;
50773;SDS011;36745;48.544;8.918;2024-01-10T06:13:40;68.55;;;32.05;;
50773;SDS011;36745;48.544;8.918;2024-01-10T06:16:59;69.43;;;33.83;;
50773;SDS011;36745;48.544;8.918;2024-01-10T06:20:20;72.88;;;33.60;;
50773;SDS011;36745;48.544;8.918;2024-01-10T06:23:40;69.15;;;33.35;;
50773;SDS011;36745;48.544;8.918;2024-01-10T06:27:00;71.18;;;34.90;;
50773;SDS011;36745;48.544;8.918;2024-01-10T06:30:20;64.93;;;32.13;;
50773;SDS011;36745;48.544;8.918;2024-01-10T06:33:39;63.72;;;29.25;;
50773;SDS011;36745;48.544;8.918;2024-01-10T06:36:59;74.97;;;35.25;;
50773;SDS011;36745;48.544;8.918;2024-01-10T06:40:19;70.40;;;34.13;;
50773;SDS011;36745;48.544;8.918;2024-01-10T06:43:41;71.00;;;34.85;;
50773;SDS011;36745;48.544;8.918;2024-01-10T06:47:01;66.85;;;32.45;;
50773;SDS011;36745;48.544;8.918;2024-01-10T06:50:20;77.80;;;37.85;;
50773;SDS011;36745;48.544;8.918;2024-01-10T06:53:40;57.45;;;28.38;;
50773;SDS011;36745;48.544;8.918;2024-01-10T06:57:00;71.97;;;32.95;;
50773;SDS011;36745;48.544;8.918;2024-01-10T07:00:20;62.45;;;31.73;;
50773;SDS011;36745;48.544;8.918;2024-01-10T07:03:41;66.35;;;33.28;;
50773;SDS011;36745;48.544;8.918;2024-01-10T07:07:01;76.70;;;34.47;;
50773;SDS011;36745;48.544;8.918;2024-01-10T07:10:21;69.90;;;32.90;;
50773;SDS011;36745;48.544;8.918;2024-01-10T07:17:04;68.45;;;31.13;;
50773;SDS011;36745;48.544;8.918;2024-01-10T07:20:24;60.40;;;29.88;;
50773;SDS011;36745;48.544;8.918;2024-01-10T07:23:44;68.80;;;32.80;;
50773;SDS011;36745;48.544;8.918;2024-01-10T07:27:04;68.18;;;33.00;;
50773;SDS011;36745;48.544;8.918;2024-01-10T07:30:24;77.53;;;36.75;;
50773;SDS011;36745;48.544;8.918;2024-01-10T07:33:44;77.00;;;35.85;;
50773;SDS011;36745;48.544;8.918;2024-01-10T07:37:03;70.18;;;33.55;;
50773;SDS011;36745;48.544;8.918;2024-01-10T07:40:26;68.05;;;33.85;;
50773;SDS011;36745;48.544;8.918;2024-01-10T07:43:45;74.53;;;36.05;;
50773;SDS011;36745;48.544;8.918;2024-01-10T07:47:05;79.57;;;36.33;;
50773;SDS011;36745;48.544;8.918;2024-01-10T07:50:26;74.00;;;33.65;;
50773;SDS011;36745;48.544;8.918;2024-01-10T07:53:47;74.85;;;33.63;;
50773;SDS011;36745;48.544;8.918;2024-01-10T07:57:07;82.93;;;37.60;;
50773;SDS011;36745;48.544;8.918;2024-01-10T08:00:27;71.60;;;33.20;;
50773;SDS011;36745;48.544;8.918;2024-01-10T08:03:46;66.38;;;31.83;;
50773;SDS011;36745;48.544;8.918;2024-01-10T08:07:06;67.53;;;33.08;;
50773;SDS011;36745;48.544;8.918;2024-01-10T08:10:26;77.25;;;37.55;;
50773;SDS011;36745;48.544;8.918;2024-01-10T08:13:46;83.53;;;39.72;;
50773;SDS011;36745;48.544;8.918;2024-01-10T08:17:06;95.25;;;43.88;;
50773;SDS011;36745;48.544;8.918;2024-01-10T08:20:26;75.45;;;39.28;;
50773;SDS011;36745;48.544;8.918;2024-01-10T08:23:46;77.15;;;38.17;;
50773;SDS011;36745;48.544;8.918;2024-01-10T08:27:06;77.85;;;37.85;;
50773;SDS011;36745;48.544;8.918;2024-01-10T08:30:27;76.90;;;37.72;;
50773;SDS011;36745;48.544;8.918;2024-01-10T08:33:47;71.25;;;36.05;;
50773;SDS011;36745;48.544;8.918;2024-01-10T08:37:06;79.75;;;36.92;;
50773;SDS011;36745;48.544;8.918;2024-01-10T08:40:27;73.65;;;36.13;;
50773;SDS011;36745;48.544;8.918;2024-01-10T08:43:46;73.30;;;38.13;;
50773;SDS011;36745;48.544;8.918;2024-01-10T08:47:06;84.53;;;40.78;;
50773;SDS011;36745;48.544;8.918;2024-01-10T08:50:26;85.22;;;42.20;;
50773;SDS011;36745;48.544;8.918;2024-01-10T08:53:46;82.97;;;42.13;;
50773;SDS011;36745;48.544;8.918;2024-01-10T08:57:06;75.75;;;39.28;;
50773;SDS011;36745;48.544;8.918;2024-01-10T09:00:25;79.28;;;35.88;;
50773;SDS011;36745;48.544;8.918;2024-01-10T09:03:46;71.35;;;34.88;;
50773;SDS011;36745;48.544;8.918;2024-01-10T09:07:06;72.30;;;36.00;;
50773;SDS011;36745;48.544;8.918;2024-01-10T09:10:26;65.75;;;33.83;;
50773;SDS011;36745;48.544;8.918;2024-01-10T09:13:48;80.35;;;37.47;;
50773;SDS011;36745;48.544;8.918;2024-01-10T09:17:08;67.88;;;33.13;;
50773;SDS011;36745;48.544;8.918;2024-01-10T09:20:28;69.70;;;37.08;;
50773;SDS011;36745;48.544;8.918;2024-01-10T09:23:48;74.53;;;36.30;;
50773;SDS011;36745;48.544;8.918;2024-01-10T09:27:10;71.25;;;33.80;;
50773;SDS011;36745;48.544;8.918;2024-01-10T09:30:30;70.93;;;36.63;;
50773;SDS011;36745;48.544;8.918;2024-01-10T09:33:49;70.35;;;35.72;;
50773;SDS011;36745;48.544;8.918;2024-01-10T09:37:09;70.65;;;36.58;;
50773;SDS011;36745;48.544;8.918;2024-01-10T09:40:29;70.15;;;35.08;;
50773;SDS011;36745;48.544;8.918;2024-01-10T09:43:49;74.85;;;36.35;;
50773;SDS011;36745;48.544;8.918;2024-01-10T09:47:09;71.90;;;36.00;;
50773;SDS011;36745;48.544;8.918;2024-01-10T09:50:29;64.30;;;34.47;;
50773;SDS011;36745;48.544;8.918;2024-01-10T09:53:48;66.88;;;34.65;;
50773;SDS011;36745;48.544;8.918;2024-01-10T09:57:14;72.35;;;34.28;;
50773;SDS011;36745;48.544;8.918;2024-01-10T10:00:34;52.33;;;25.70;;
50773;SDS011;36745;48.544;8.918;2024-01-10T10:03:56;66.28;;;33.72;;
50773;SDS011;36745;48.544;8.918;2024-01-10T10:07:17;71.57;;;36.97;;
50773;SDS011;36745;48.544;8.918;2024-01-10T10:10:37;61.80;;;32.72;;
50773;SDS011;36745;48.544;8.918;2024-01-10T10:14:15;69.53;;;35.72;;
50773;SDS011;36745;48.544;8.918;2024-01-10T10:17:35;64.68;;;32.80;;
50773;SDS011;36745;48.544;8.918;2024-01-10T10:24:31;64.53;;;32.75;;
50773;SDS011;36745;48.544;8.918;2024-01-10T10:27:51;59.35;;;30.17;;
50773;SDS011;36745;48.544;8.918;2024-01-10T10:31:11;65.88;;;31.35;;
50773;SDS011;36745;48.544;8.918;2024-01-10T10:34:31;63.88;;;32.03;;
50773;SDS011;36745;48.544;8.918;2024-01-10T10:37:54;64.10;;;32.63;;
50773;SDS011;36745;48.544;8.918;2024-01-10T10:41:14;64.32;;;31.70;;
50773;SDS011;36745;48.544;8.918;2024-01-10T10:44:35;57.60;;;29.15;;
50773;SDS011;36745;48.544;8.918;2024-01-10T10:47:59;58.10;;;28.73;;
50773;SDS011;36745;48.544;8.918;2024-01-10T10:51:38;59.60;;;31.48;;
50773;SDS011;36745;48.544;8.918;2024-01-10T10:55:00;57.50;;;30.13;;
50773;SDS011;36745;48.544;8.918;2024-01-10T10:58:22;55.22;;;29.90;;
50773;SDS011;36745;48.544;8.918;2024-01-10T11:01:42;65.30;;;32.90;;
50773;SDS011;36745;48.544;8.918;2024-01-10T11:05:04;60.17;;;29.92;;
50773;SDS011;36745;48.544;8.918;2024-01-10T11:08:25;59.20;;;31.15;;
50773;SDS011;36745;48.544;8.918;2024-01-10T11:26:14;68.07;;;32.47;;
50773;SDS011;36745;48.544;8.918;2024-01-10T11:29:36;61.20;;;32.95;;
50773;SDS011;36745;48.544;8.918;2024-01-10T11:33:00;60.63;;;32.25;;
50773;SDS011;36745;48.544;8.918;2024-01-10T11:36:21;62.50;;;32.58;;
50773;SDS011;36745;48.544;8.918;2024-01-10T11:39:44;63.83;;;31.77;;
50773;SDS011;36745;48.544;8.918;2024-01-10T11:43:04;61.47;;;32.70;;
50773;SDS011;36745;48.544;8.918;2024-01-10T11:46:23;65.85;;;31.85;;
50773;SDS011;36745;48.544;8.918;2024-01-10T11:49:53;59.70;;;31.63;;
50773;SDS011;36745;48.544;8.918;2024-01-10T11:53:23;62.78;;;32.55;;
50773;SDS011;36745;48.544;8.918;2024-01-10T11:57:01;63.55;;;33.33;;
50773;SDS011;36745;48.544;8.918;2024-01-10T12:00:21;61.83;;;32.55;;
50773;SDS011;36745;48.544;8.918;2024-01-10T12:03:41;63.33;;;33.60;;
50773;SDS011;36745;48.544;8.918;2024-01-10T12:07:02;62.00;;;33.17;;
50773;SDS011;36745;48.544;8.918;2024-01-10T12:10:25;55.55;;;31.90;;
50773;SDS011;36745;48.544;8.918;2024-01-10T12:13:47;60.15;;;32.72;;
50773;SDS011;36745;48.544;8.918;2024-01-10T12:17:07;56.70;;;31.13;;
50773;SDS011;36745;48.544;8.918;2024-01-10T12:20:27;63.85;;;31.13;;
50773;SDS011;36745;48.544;8.918;2024-01-10T12:23:48;54.78;;;30.15;;
50773;SDS011;36745;48.544;8.918;2024-01-10T12:27:07;55.00;;;29.45;;
50773;SDS011;36745;48.544;8.918;2024-01-10T12:30:27;55.75;;;32.92;;
50773;SDS011;36745;48.544;8.918;2024-01-10T12:33:48;50.45;;;30.45;;
50773;SDS011;36745;48.544;8.918;2024-01-10T12:37:09;55.15;;;31.23;;
50773;SDS011;36745;48.544;8.918;2024-01-10T12:40:31;56.83;;;32.60;;
50773;SDS011;36745;48.544;8.918;2024-01-10T12:43:54;64.47;;;37.47;;
50773;SDS011;36745;48.544;8.918;2024-01-10T12:47:18;49.88;;;29.05;;
50773;SDS011;36745;48.544;8.918;2024-01-10T12:50:39;49.97;;;28.48;;
50773;SDS011;36745;48.544;8.918;2024-01-10T12:53:59;58.33;;;32.95;;
50773;SDS011;36745;48.544;8.918;2024-01-10T12:57:19;55.53;;;32.50;;
50773;SDS011;36745;48.544;8.918;2024-01-10T13:00:39;53.92;;;32.72;;
50773;SDS011;36745;48.544;8.918;2024-01-10T13:03:59;54.53;;;33.80;;
50773;SDS011;36745;48.544;8.918;2024-01-10T13:07:19;51.03;;;30.13;;
50773;SDS011;36745;48.544;8.918;2024-01-10T13:10:39;49.05;;;30.17;;
50773;SDS011;36745;48.544;8.918;2024-01-10T13:13:59;51.83;;;30.92;;
50773;SDS011;36745;48.544;8.918;2024-01-10T13:17:19;52.50;;;31.50;;
50773;SDS011;36745;48.544;8.918;2024-01-10T13:20:39;52.53;;;29.45;;
50773;SDS011;36745;48.544;8.918;2024-01-10T13:23:59;47.20;;;29.48;;
50773;SDS011;36745;48.544;8.918;2024-01-10T13:27:19;50.88;;;30.30;;
50773;SDS011;36745;48.544;8.918;2024-01-10T13:30:39;49.00;;;29.83;;
50773;SDS011;36745;48.544;8.918;2024-01-10T13:34:00;53.42;;;30.77;;
50773;SDS011;36745;48.544;8.918;2024-01-10T13:37:19;55.17;;;31.15;;
50773;SDS011;36745;48.544;8.918;2024-01-10T13:40:39;54.25;;;30.05;;
50773;SDS011;36745;48.544;8.918;2024-01-10T13:44:00;55.08;;;31.23;;
50773;SDS011;36745;48.544;8.918;2024-01-10T13:47:20;52.97;;;30.55;;
50773;SDS011;36745;48.544;8.918;2024-01-10T13:50:42;48.55;;;29.98;;
50773;SDS011;36745;48.544;8.918;2024-01-10T13:54:02;50.83;;;29.10;;
50773;SDS011;36745;48.544;8.918;2024-01-10T13:57:22;51.58;;;29.17;;
50773;SDS011;36745;48.544;8.918;2024-01-10T14:00:42;50.50;;;27.42;;
50773;SDS011;36745;48.544;8.918;2024-01-10T14:04:02;48.58;;;28.02;;
50773;SDS011;36745;48.544;8.918;2024-01-10T14:07:22;50.72;;;28.08;;
50773;SDS011;36745;48.544;8.918;2024-01-10T14:10:42;51.05;;;26.95;;
50773;SDS011;36745;48.544;8.918;2024-01-10T14:14:01;48.95;;;27.33;;
50773;SDS011;36745;48.544;8.918;2024-01-10T14:17:22;45.42;;;27.52;;
50773;SDS011;36745;48.544;8.918;2024-01-10T14:20:42;54.17;;;28.42;;
50773;SDS011;36745;48.544;8.918;2024-01-10T14:24:01;53.65;;;28.08;;
50773;SDS011;36745;48.544;8.918;2024-01-10T14:27:24;47.67;;;26.13;;
50773;SDS011;36745;48.544;8.918;2024-01-10T14:30:45;44.60;;;25.38;;
50773;SDS011;36745;48.544;8.918;2024-01-10T14:34:05;48.92;;;26.17;;
50773;SDS011;36745;48.544;8.918;2024-01-10T14:37:25;47.22;;;26.58;;
50773;SDS011;36745;48.544;8.918;2024-01-10T14:40:45;48.83;;;26.77;;
50773;SDS011;36745;48.544;8.918;2024-01-10T14:44:05;51.95;;;28.70;;
50773;SDS011;36745;48.544;8.918;2024-01-10T14:47:24;54.22;;;28.98;;
50773;SDS011;36745;48.544;8.918;2024-01-10T14:50:44;52.38;;;27.65;;
50773;SDS011;36745;48.544;8.918;2024-01-10T14:54:04;50.75;;;28.65;;
50773;SDS011;36745;48.544;8.918;2024-01-10T14:57:24;51.50;;;29.33;;
50773;SDS011;36745;48.544;8.918;2024-01-10T15:00:44;56.58;;;28.50;;
50773;SDS011;36745;48.544;8.918;2024-01-10T15:04:03;55.55;;;29.75;;
50773;SDS011;36745;48.544;8.918;2024-01-10T15:07:23;58.05;;;31.08;;
50773;SDS011;36745;48.544;8.918;2024-01-10T15:10:43;58.25;;;30.50;;
50773;SDS011;36745;48.544;8.918;2024-01-10T15:14:03;61.08;;;30.23;;
50773;SDS011;36745;48.544;8.918;2024-01-10T15:17:23;57.30;;;30.35;;
50773;SDS011;36745;48.544;8.918;2024-01-10T15:20:43;58.35;;;29.98;;
50773;SDS011;36745;48.544;8.918;2024-01-10T15:24:03;63.65;;;30.55;;
50773;SDS011;36745;48.544;8.918;2024-01-10T15:27:25;56.35;;;30.38;;
50773;SDS011;36745;48.544;8.918;2024-01-10T15:30:47;59.53;;;31.13;;
50773;SDS011;36745;48.544;8.918;2024-01-10T15:34:07;57.58;;;30.85;;
50773;SDS011;36745;48.544;8.918;2024-01-10T15:37:28;57.50;;;30.73;;
50773;SDS011;36745;48.544;8.918;2024-01-10T15:40:47;57.67;;;30.45;;
50773;SDS011;36745;48.544;8.918;2024-01-10T15:44:07;64.15;;;30.80;;
50773;SDS011;36745;48.544;8.918;2024-01-10T15:47:28;58.80;;;31.33;;
50773;SDS011;36745;48.544;8.918;2024-01-10T15:50:48;59.45;;;31.25;;
50773;SDS011;36745;48.544;8.918;2024-01-10T15:54:08;62.03;;;31.73;;
50773;SDS011;36745;48.544;8.918;2024-01-10T15:57:28;58.22;;;31.13;;
50773;SDS011;36745;48.544;8.918;2024-01-10T16:00:47;59.42;;;31.10;;
50773;SDS011;36745;48.544;8.918;2024-01-10T16:04:07;59.15;;;30.55;;
50773;SDS011;36745;48.544;8.918;2024-01-10T16:07:27;60.65;;;30.77;;
50773;SDS011;36745;48.544;8.918;2024-01-10T16:10:47;56.08;;;29.55;;
50773;SDS011;36745;48.544;8.918;2024-01-10T16:14:06;57.95;;;30.58;;
50773;SDS011;36745;48.544;8.918;2024-01-10T16:17:26;63.53;;;31.17;;
50773;SDS011;36745;48.544;8.918;2024-01-10T16:20:46;61.35;;;32.17;;
50773;SDS011;36745;48.544;8.918;2024-01-10T16:24:06;57.75;;;32.08;;
50773;SDS011;36745;48.544;8.918;2024-01-10T16:27:27;62.47;;;32.63;;
50773;SDS011;36745;48.544;8.918;2024-01-10T16:30:47;58.45;;;31.08;;
50773;SDS011;36745;48.544;8.918;2024-01-10T16:34:06;60.05;;;31.05;;
50773;SDS011;36745;48.544;8.918;2024-01-10T16:37:26;58.55;;;31.48;;
50773;SDS011;36745;48.544;8.918;2024-01-10T16:40:46;59.05;;;31.80;;
50773;SDS011;36745;48.544;8.918;2024-01-10T16:44:05;61.65;;;32.53;;
50773;SDS011;36745;48.544;8.918;2024-01-10T16:47:25;55.25;;;29.73;;
50773;SDS011;36745;48.544;8.918;2024-01-10T16:50:45;58.42;;;31.58;;
50773;SDS011;36745;48.544;8.918;2024-01-10T16:54:05;56.67;;;30.60;;
50773;SDS011;36745;48.544;8.918;2024-01-10T16:57:25;56.92;;;30.00;;
50773;SDS011;36745;48.544;8.918;2024-01-10T17:00:45;60.45;;;32.25;;
50773;SDS011;36745;48.544;8.918;2024-01-10T17:04:04;55.58;;;30.10;;
50773;SDS011;36745;48.544;8.918;2024-01-10T17:07:24;63.80;;;32.17;;
50773;SDS011;36745;48.544;8.918;2024-01-10T17:10:44;88.13;;;41.78;;
50773;SDS011;36745;48.544;8.918;2024-01-10T17:14:04;72.18;;;37.00;;
50773;SDS011;36745;48.544;8.918;2024-01-10T17:17:24;88.72;;;45.05;;
50773;SDS011;36745;48.544;8.918;2024-01-10T17:20:43;95.97;;;46.70;;
50773;SDS011;36745;48.544;8.918;2024-01-10T17:24:03;92.15;;;45.50;;
50773;SDS011;36745;48.544;8.918;2024-01-10T17:27:23;91.30;;;44.47;;
50773;SDS011;36745;48.544;8.918;2024-01-10T17:30:43;82.60;;;43.03;;
50773;SDS011;36745;48.544;8.918;2024-01-10T17:34:03;82.10;;;41.20;;
50773;SDS011;36745;48.544;8.918;2024-01-10T17:37:22;73.85;;;36.55;;
50773;SDS011;36745;48.544;8.918;2024-01-10T17:40:43;68.07;;;33.83;;
50773;SDS011;36745;48.544;8.918;2024-01-10T17:44:03;70.95;;;35.70;;
50773;SDS011;36745;48.544;8.918;2024-01-10T17:47:23;75.30;;;38.60;;
50773;SDS011;36745;48.544;8.918;2024-01-10T17:50:43;85.22;;;38.60;;
50773;SDS011;36745;48.544;8.918;2024-01-10T17:54:03;82.75;;;44.60;;
50773;SDS011;36745;48.544;8.918;2024-01-10T17:57:23;85.15;;;43.92;;
50773;SDS011;36745;48.544;8.918;2024-01-10T18:00:45;80.85;;;42.90;;
50773;SDS011;36745;48.544;8.918;2024-01-10T18:04:05;88.10;;;43.17;;
50773;SDS011;36745;48.544;8.918;2024-01-10T18:07:26;81.05;;;41.08;;
50773;SDS011;36745;48.544;8.918;2024-01-10T18:10:46;72.82;;;38.13;;
50773;SDS011;36745;48.544;8.918;2024-01-10T18:14:07;74.68;;;34.53;;
50773;SDS011;36745;48.544;8.918;2024-01-10T18:17:26;66.40;;;33.40;;
50773;SDS011;36745;48.544;8.918;2024-01-10T18:20:46;69.10;;;34.90;;
50773;SDS011;36745;48.544;8.918;2024-01-10T18:24:06;70.78;;;34.97;;
50773;SDS011;36745;48.544;8.918;2024-01-10T18:27:26;73.47;;;36.20;;
50773;SDS011;36745;48.544;8.918;2024-01-10T18:30:46;71.22;;;36.65;;
50773;SDS011;36745;48.544;8.918;2024-01-10T18:34:05;78.60;;;36.60;;
50773;SDS011;36745;48.544;8.918;2024-01-10T18:37:26;75.82;;;35.85;;
50773;SDS011;36745;48.544;8.918;2024-01-10T18:40:46;87.28;;;40.00;;
50773;SDS011;36745;48.544;8.918;2024-01-10T18:44:06;114.15;;;47.40;;
50773;SDS011;36745;48.544;8.918;2024-01-10T18:47:26;90.10;;;40.55;;
50773;SDS011;36745;48.544;8.918;2024-01-10T18:50:46;84.65;;;40.53;;
50773;SDS011;36745;48.544;8.918;2024-01-10T18:54:06;80.75;;;38.65;;
50773;SDS011;36745;48.544;8.918;2024-01-10T18:57:26;88.32;;;38.15;;
50773;SDS011;36745;48.544;8.918;2024-01-10T19:00:46;81.10;;;37.80;;
50773;SDS011;36745;48.544;8.918;2024-01-10T19:04:05;81.53;;;37.47;;
50773;SDS011;36745;48.544;8.918;2024-01-10T19:07:25;76.32;;;36.92;;
50773;SDS011;36745;48.544;8.918;2024-01-10T19:10:45;68.50;;;35.00;;
50773;SDS011;36745;48.544;8.918;2024-01-10T19:14:05;73.47;;;35.85;;
50773;SDS011;36745;48.544;8.918;2024-01-10T19:17:24;75.35;;;36.55;;
50773;SDS011;36745;48.544;8.918;2024-01-10T19:20:44;70.30;;;34.50;;
50773;SDS011;36745;48.544;8.918;2024-01-10T19:24:04;77.82;;;37.92;;
50773;SDS011;36745;48.544;8.918;2024-01-10T19:27:24;84.93;;;41.08;;
50773;SDS011;36745;48.544;8.918;2024-01-10T19:30:44;86.60;;;41.03;;
50773;SDS011;36745;48.544;8.918;2024-01-10T19:34:03;89.65;;;43.67;;
50773;SDS011;36745;48.544;8.918;2024-01-10T19:37:23;108.38;;;49.85;;
50773;SDS011;36745;48.544;8.918;2024-01-10T19:40:43;100.38;;;50.15;;
50773;SDS011;36745;48.544;8.918;2024-01-10T19:44:03;91.15;;;47.50;;
50773;SDS011;36745;48.544;8.918;2024-01-10T19:47:23;75.93;;;39.00;;
50773;SDS011;36745;48.544;8.918;2024-01-10T19:50:43;88.72;;;43.60;;
50773;SDS011;36745;48.544;8.918;2024-01-10T19:54:02;88.00;;;42.80;;